createdAt,value
2023-03-15T00:02:03.250Z,991.23
2023-03-15T00:07:07.325Z,991.37
2023-03-15T00:12:11.510Z,991.52
2023-03-15T00:17:15.692Z,991.92
2023-03-15T00:22:19.797Z,992.09
2023-03-15T00:27:23.984Z,992.39
2023-03-15T00:32:28.199Z,992.54
2023-03-15T00:37:32.301Z,992.70
2023-03-15T00:42:36.509Z,992.84
2023-03-15T00:47:40.762Z,992.91
2023-03-15T00:52:44.786Z,993.06
2023-03-15T00:57:47.107Z,993.07
2023-03-15T01:02:51.326Z,993.29
2023-03-15T01:07:55.456Z,993.64
2023-03-15T01:12:59.577Z,993.92
2023-03-15T01:18:03.754Z,994.25
2023-03-15T01:23:08.031Z,994.41
2023-03-15T01:28:12.067Z,994.65
2023-03-15T01:33:16.230Z,994.80
2023-03-15T01:38:20.482Z,994.95
2023-03-15T01:43:24.575Z,994.97
2023-03-15T01:48:28.775Z,994.98
2023-03-15T01:53:32.900Z,995.11
2023-03-15T01:58:37.110Z,994.98
2023-03-15T02:03:41.243Z,994.97
2023-03-15T02:08:45.391Z,994.94
2023-03-15T02:13:49.599Z,994.93
2023-03-15T02:18:53.731Z,994.89
2023-03-15T02:23:57.879Z,994.85
2023-03-15T02:29:02.074Z,994.93
2023-03-15T02:34:06.209Z,994.88
2023-03-15T02:39:10.385Z,994.83
2023-03-15T02:44:12.679Z,994.86
2023-03-15T02:49:16.829Z,994.90
2023-03-15T02:54:19.097Z,994.85
2023-03-15T02:59:23.260Z,994.85
2023-03-15T03:04:27.440Z,994.79
2023-03-15T03:09:29.669Z,994.86
2023-03-15T03:14:33.871Z,994.74
2023-03-15T03:19:38.014Z,994.81
2023-03-15T03:24:42.185Z,994.84
2023-03-15T03:29:46.349Z,995.03
2023-03-15T03:34:50.592Z,995.16
2023-03-15T03:39:54.708Z,995.20
2023-03-15T03:44:58.857Z,995.24
2023-03-15T03:55:07.175Z,995.22
2023-03-15T04:00:11.345Z,995.29
2023-03-15T04:05:15.524Z,995.29
2023-03-15T04:10:19.658Z,995.42
2023-03-15T04:20:28.005Z,995.46
2023-03-15T04:25:30.292Z,995.54
2023-03-15T04:30:32.710Z,995.55
2023-03-15T04:35:43.789Z,995.55
2023-03-15T04:40:54.929Z,995.67
2023-03-15T04:46:06.092Z,995.67
2023-03-15T04:51:17.247Z,995.75
2023-03-15T04:56:28.404Z,995.59
2023-03-15T05:01:39.577Z,995.68
2023-03-15T05:06:41.882Z,995.77
2023-03-15T05:11:46.056Z,995.78
2023-03-15T05:16:50.188Z,995.76
2023-03-15T05:21:54.371Z,995.83
2023-03-15T05:26:58.494Z,995.90
2023-03-15T05:32:02.780Z,995.97
2023-03-15T05:37:06.867Z,996.02
2023-03-15T05:42:11.019Z,996.21
2023-03-15T05:47:15.221Z,996.35
2023-03-15T05:52:19.370Z,996.43
2023-03-15T05:57:23.541Z,996.58
2023-03-15T06:02:27.663Z,996.68
2023-03-15T06:07:31.850Z,996.72
2023-03-15T06:12:36.026Z,996.73
2023-03-15T06:17:40.169Z,996.80
2023-03-15T06:22:44.358Z,996.84
2023-03-15T06:27:48.502Z,996.88
2023-03-15T06:32:52.663Z,996.80
2023-03-15T06:37:56.844Z,996.85
2023-03-15T06:43:00.986Z,996.93
2023-03-15T06:48:05.146Z,996.96
2023-03-15T06:53:07.431Z,996.92
2023-03-15T06:58:11.588Z,997.02
2023-03-15T07:03:13.880Z,996.96
2023-03-15T07:08:18.054Z,997.04
2023-03-15T07:13:22.180Z,997.11
2023-03-15T07:18:26.339Z,997.08
2023-03-15T07:23:30.551Z,997.19
2023-03-15T07:28:34.733Z,997.28
2023-03-15T07:33:38.871Z,997.26
2023-03-15T07:38:43.416Z,997.25
2023-03-15T07:43:47.161Z,997.30
2023-03-15T07:48:51.350Z,997.33
2023-03-15T07:53:55.532Z,997.46
2023-03-15T07:58:59.664Z,997.64
2023-03-15T08:04:03.859Z,997.67
2023-03-15T08:09:08.002Z,997.71
2023-03-15T08:14:12.182Z,997.71
2023-03-15T08:19:16.313Z,997.96
2023-03-15T08:24:20.482Z,998.07
2023-03-15T08:29:24.687Z,998.23
2023-03-15T08:34:28.836Z,998.42
2023-03-15T08:39:32.965Z,998.72
2023-03-15T08:44:37.143Z,998.94
2023-03-15T08:49:39.408Z,999.06
2023-03-15T08:54:43.564Z,999.11
2023-03-15T08:59:47.780Z,999.10
2023-03-15T09:04:52.387Z,999.11
2023-03-15T09:09:54.188Z,999.06
2023-03-15T09:14:58.316Z,998.89
2023-03-15T09:20:02.524Z,998.55
2023-03-15T09:25:06.696Z,998.54
2023-03-15T09:30:10.862Z,998.49
2023-03-15T09:35:15.028Z,998.52
2023-03-15T09:40:19.161Z,998.45
2023-03-15T09:45:23.329Z,998.41
2023-03-15T09:50:27.480Z,998.45
2023-03-15T09:55:31.693Z,998.52
2023-03-15T10:00:35.824Z,998.50
2023-03-15T10:05:39.996Z,998.48
2023-03-15T10:10:44.183Z,998.59
2023-03-15T10:15:48.334Z,998.47
2023-03-15T10:20:52.496Z,998.47
2023-03-15T10:25:56.661Z,998.52
2023-03-15T10:31:00.896Z,998.47
2023-03-15T10:36:11.098Z,998.43
2023-03-15T10:41:10.007Z,998.32
2023-03-15T10:46:13.354Z,998.24
2023-03-15T10:51:15.590Z,998.27
2023-03-15T10:56:19.763Z,998.19
2023-03-15T11:01:22.066Z,998.25
2023-03-15T11:06:26.160Z,998.24
2023-03-15T11:11:30.336Z,998.23
2023-03-15T11:16:34.536Z,998.31
2023-03-15T11:21:38.632Z,998.31
2023-03-15T11:26:42.799Z,998.70
2023-03-15T11:31:47.063Z,998.82
2023-03-15T11:37:05.351Z,998.88
2023-03-15T11:46:59.529Z,999.11
2023-03-15T11:52:03.630Z,999.34
2023-03-15T11:57:07.795Z,999.25
2023-03-15T12:02:12.049Z,998.99
2023-03-15T12:07:16.082Z,998.95
2023-03-15T12:12:20.248Z,998.82
2023-03-15T12:17:24.487Z,998.83
2023-03-15T12:22:28.610Z,998.70
2023-03-15T12:32:36.981Z,998.71
2023-03-15T12:37:39.182Z,998.68
2023-03-15T12:43:14.124Z,998.59
2023-03-15T12:48:01.489Z,998.74
2023-03-15T12:53:12.702Z,998.79
2023-03-15T12:58:23.885Z,999.15
2023-03-15T13:03:35.197Z,999.42
2023-03-15T13:08:46.248Z,999.85
2023-03-15T13:13:55.482Z,1000.58
2023-03-15T13:18:59.652Z,1000.87
2023-03-15T13:24:03.781Z,1000.77
2023-03-15T13:29:07.982Z,1001.15
2023-03-15T13:34:12.121Z,1002.39
2023-03-15T13:44:20.477Z,1007.93
2023-03-15T13:49:24.603Z,1008.21
2023-03-15T13:54:28.760Z,1008.34
2023-03-15T13:59:32.952Z,1008.24
2023-03-15T14:04:37.077Z,1008.17
2023-03-15T14:09:41.248Z,1008.43
2023-03-15T14:14:45.450Z,1008.60
2023-03-15T14:19:49.611Z,1008.71
2023-03-15T14:24:53.735Z,1008.55
2023-03-15T14:29:57.913Z,1008.73
2023-03-15T14:35:02.121Z,1008.68
2023-03-15T14:40:06.238Z,1008.64
2023-03-15T14:45:10.470Z,1008.77
2023-03-15T14:50:14.853Z,1008.96
2023-03-15T15:00:22.889Z,1008.97
2023-03-15T15:05:29.962Z,1009.12
2023-03-15T15:10:29.546Z,1009.17
2023-03-15T15:15:40.739Z,1009.27
2023-03-15T15:20:35.733Z,1009.25
2023-03-15T15:25:39.904Z,1009.29
2023-03-15T15:30:44.068Z,1009.25
2023-03-15T15:35:48.226Z,1009.23
2023-03-15T15:40:52.395Z,1009.22
2023-03-15T15:45:56.612Z,1009.18
2023-03-15T15:51:00.723Z,1009.24
2023-03-15T15:56:05.052Z,1009.25
2023-03-15T16:01:09.044Z,1009.30
2023-03-15T16:06:13.205Z,1009.24
2023-03-15T16:11:17.328Z,1009.36
2023-03-15T16:16:21.596Z,1009.33
2023-03-15T16:21:25.628Z,1009.28
2023-03-15T16:26:29.822Z,1009.28
2023-03-15T16:31:34.091Z,1009.29
2023-03-15T16:36:38.172Z,1009.29
2023-03-15T16:41:42.335Z,1009.40
2023-03-15T16:46:46.594Z,1009.48
2023-03-15T16:51:50.656Z,1009.44
2023-03-15T16:56:54.790Z,1009.40
2023-03-15T17:01:59.088Z,1009.35
2023-03-15T17:07:01.250Z,1009.37
2023-03-15T17:12:05.377Z,1009.38
2023-03-15T17:17:07.663Z,1009.48
2023-03-15T17:22:11.871Z,1009.54
2023-03-15T17:27:16.027Z,1009.42
2023-03-15T17:32:20.192Z,1009.43
2023-03-15T17:37:24.355Z,1009.26
2023-03-15T17:47:32.689Z,1009.23
2023-03-15T17:52:36.798Z,1009.19
2023-03-15T17:57:45.771Z,1008.84
2023-03-15T18:07:58.181Z,1008.17
2023-03-15T18:12:53.468Z,1005.68
2023-03-15T18:17:57.654Z,1001.28
2023-03-15T18:22:59.922Z,999.84
2023-03-15T18:28:11.111Z,999.28
2023-03-15T18:33:22.272Z,999.31
2023-03-15T18:38:33.470Z,999.90
2023-03-15T18:43:44.608Z,1000.18
2023-03-15T18:48:55.755Z,1000.42
2023-03-15T18:54:06.942Z,1000.60
2023-03-15T18:59:09.202Z,1000.62
2023-03-15T19:04:13.360Z,1000.75
2023-03-15T19:09:17.536Z,1000.86
2023-03-15T19:14:21.720Z,1001.03
2023-03-15T19:19:25.857Z,1001.05
2023-03-15T19:24:30.026Z,1001.19
2023-03-15T19:29:34.210Z,1001.27
2023-03-15T19:34:38.359Z,1001.37
2023-03-15T19:39:42.535Z,1001.40
2023-03-15T19:44:46.721Z,1001.52
2023-03-15T19:49:50.854Z,1001.57
2023-03-15T19:54:55.041Z,1001.63
2023-03-15T19:59:59.188Z,1001.76
2023-03-15T20:05:03.517Z,1001.78
2023-03-15T20:10:07.532Z,1001.91
2023-03-15T20:15:11.695Z,1002.06
2023-03-15T20:20:15.843Z,1002.23
2023-03-15T20:25:20.021Z,1002.18
2023-03-15T20:30:24.868Z,1002.32
2023-03-15T20:35:28.364Z,1002.19
2023-03-15T20:40:32.499Z,1002.14
2023-03-15T20:45:34.797Z,1002.16
2023-03-15T20:50:38.942Z,1002.10
2023-03-15T20:55:43.098Z,1002.10
2023-03-15T21:00:47.340Z,1002.15
2023-03-15T21:10:55.643Z,1001.98
2023-03-15T21:15:59.858Z,1001.83
2023-03-15T21:21:03.941Z,1001.82
2023-03-15T21:26:08.113Z,1001.68
2023-03-15T21:31:10.449Z,1001.59
2023-03-15T21:36:14.651Z,1001.49
2023-03-15T21:41:18.720Z,1001.31
2023-03-15T21:46:22.882Z,1001.26
2023-03-15T21:51:27.045Z,1001.32
2023-03-15T21:56:31.263Z,1001.34
2023-03-15T22:01:35.391Z,1001.34
2023-03-15T22:06:39.530Z,1001.34
2023-03-15T22:11:43.712Z,1001.28
2023-03-15T22:16:47.872Z,1001.33
2023-03-15T22:21:52.021Z,1001.38
2023-03-15T22:26:56.195Z,1001.29
2023-03-15T22:32:00.338Z,1001.35
2023-03-15T22:37:02.639Z,1001.40
2023-03-15T22:42:06.792Z,1001.39
2023-03-15T22:47:09.084Z,1001.27
2023-03-15T22:52:13.273Z,1001.29
2023-03-15T22:57:17.417Z,1001.25
2023-03-15T23:02:21.541Z,1001.29
2023-03-15T23:07:25.738Z,1001.30
2023-03-15T23:12:35.800Z,1001.31
2023-03-15T23:17:34.041Z,1001.35
2023-03-15T23:22:38.223Z,1001.26
2023-03-15T23:27:42.395Z,1001.23
2023-03-15T23:32:46.813Z,1001.17
2023-03-15T23:37:50.746Z,1001.21
2023-03-15T23:42:54.913Z,1001.05
2023-03-15T23:47:59.066Z,1001.04
2023-03-15T23:53:03.254Z,1000.88
2023-03-15T23:58:07.372Z,1000.79
